KBFL/BFL METAR and TAF weather

Enter ICAO airport designator
Station Type Date Time Source
KBFL METAR 2018/01/22 11:54 UTC NOAA

KBFL 221154Z AUTO 00000KT 10SM CLR 05/01 A3035 RMK AO2 SLP276 T00500011 10089 20033 58004


Station Type Date Time Source
KBFL Decoded METAR 2018/01/22 11:54 UTC NOAA

BAKERSFIELD MEADOWS FIELD, CA, United States (KBFL) 35-26N 119-03W 151M
Jan 22, 2018 - 06:54 AM EST / 2018.01.22 1154 UTC
Wind: Calm:0
Visibility: 10 mile(s):0
Sky conditions: clear
Temperature: 41.0 F (5.0 C)
Dew Point: 34.0 F (1.1 C)
Relative Humidity: 75%
Pressure (altimeter): 30.35 in. Hg (1027 hPa)
Pressure tendency: 0.01 inches (0.4 hPa) lower than three hours ago
ob: KBFL 221154Z AUTO 00000KT 10SM CLR 05/01 A3035 RMK AO2 SLP276 T00500011 10089 20033 58004
cycle: 12

Station Type Date Time Source
KBFL TAF 2018/01/22 12:42 UTC NOAA

TAF KBFL 221139Z 2212/2312 VRB04KT P6SM FEW200


Example: see airport list